sensor_id;sensor_type;location;lat;lon;timestamp;P1;durP1;ratioP1;P2;durP2;ratioP2
32734;SDS011;19112;51.076;3.706;2022-12-29T00:02:14;7.00;;;1.92;;
32734;SDS011;19112;51.076;3.706;2022-12-29T00:04:41;3.50;;;1.88;;
32734;SDS011;19112;51.076;3.706;2022-12-29T00:07:06;3.38;;;1.90;;
32734;SDS011;19112;51.076;3.706;2022-12-29T00:09:33;4.28;;;1.70;;
32734;SDS011;19112;51.076;3.706;2022-12-29T00:11:59;2.42;;;1.80;;
32734;SDS011;19112;51.076;3.706;2022-12-29T00:14:28;3.72;;;1.52;;
32734;SDS011;19112;51.076;3.706;2022-12-29T00:17:12;4.10;;;1.92;;
32734;SDS011;19112;51.076;3.706;2022-12-29T00:19:38;4.07;;;1.35;;
32734;SDS011;19112;51.076;3.706;2022-12-29T00:22:23;7.68;;;1.65;;
32734;SDS011;19112;51.076;3.706;2022-12-29T00:25:08;4.35;;;1.80;;
32734;SDS011;19112;51.076;3.706;2022-12-29T00:27:54;4.00;;;1.60;;
32734;SDS011;19112;51.076;3.706;2022-12-29T00:30:38;3.88;;;1.60;;
32734;SDS011;19112;51.076;3.706;2022-12-29T00:33:25;3.63;;;1.30;;
32734;SDS011;19112;51.076;3.706;2022-12-29T00:36:27;5.88;;;1.33;;
32734;SDS011;19112;51.076;3.706;2022-12-29T00:39:10;4.95;;;1.50;;
32734;SDS011;19112;51.076;3.706;2022-12-29T00:42:04;3.65;;;1.30;;
32734;SDS011;19112;51.076;3.706;2022-12-29T00:47:30;7.18;;;1.48;;
32734;SDS011;19112;51.076;3.706;2022-12-29T00:49:56;4.90;;;1.55;;
32734;SDS011;19112;51.076;3.706;2022-12-29T00:52:21;4.55;;;1.10;;
32734;SDS011;19112;51.076;3.706;2022-12-29T00:54:47;4.45;;;1.35;;
32734;SDS011;19112;51.076;3.706;2022-12-29T00:57:13;7.43;;;1.08;;
32734;SDS011;19112;51.076;3.706;2022-12-29T00:59:39;3.70;;;1.30;;
32734;SDS011;19112;51.076;3.706;2022-12-29T01:02:07;9.93;;;1.73;;
32734;SDS011;19112;51.076;3.706;2022-12-29T01:04:34;7.32;;;1.95;;
32734;SDS011;19112;51.076;3.706;2022-12-29T01:07:00;6.90;;;1.30;;
32734;SDS011;19112;51.076;3.706;2022-12-29T01:09:26;7.15;;;1.65;;
32734;SDS011;19112;51.076;3.706;2022-12-29T01:12:10;10.20;;;1.55;;
32734;SDS011;19112;51.076;3.706;2022-12-29T01:14:36;6.70;;;1.35;;
32734;SDS011;19112;51.076;3.706;2022-12-29T01:17:03;7.35;;;1.45;;
32734;SDS011;19112;51.076;3.706;2022-12-29T01:19:29;4.40;;;1.80;;
32734;SDS011;19112;51.076;3.706;2022-12-29T01:21:55;6.45;;;1.52;;
32734;SDS011;19112;51.076;3.706;2022-12-29T01:24:22;7.75;;;1.77;;
32734;SDS011;19112;51.076;3.706;2022-12-29T01:26:49;11.35;;;1.77;;
32734;SDS011;19112;51.076;3.706;2022-12-29T01:29:15;7.65;;;1.58;;
32734;SDS011;19112;51.076;3.706;2022-12-29T01:31:41;9.20;;;1.50;;
32734;SDS011;19112;51.076;3.706;2022-12-29T01:34:07;8.88;;;1.50;;
32734;SDS011;19112;51.076;3.706;2022-12-29T01:36:32;8.32;;;1.67;;
32734;SDS011;19112;51.076;3.706;2022-12-29T01:38:59;8.13;;;1.85;;
32734;SDS011;19112;51.076;3.706;2022-12-29T01:41:24;9.13;;;1.52;;
32734;SDS011;19112;51.076;3.706;2022-12-29T01:43:55;14.63;;;1.85;;
32734;SDS011;19112;51.076;3.706;2022-12-29T01:51:35;9.68;;;1.52;;
32734;SDS011;19112;51.076;3.706;2022-12-29T01:54:16;10.82;;;2.05;;
32734;SDS011;19112;51.076;3.706;2022-12-29T01:56:48;10.10;;;1.83;;
32734;SDS011;19112;51.076;3.706;2022-12-29T01:59:18;8.20;;;1.55;;
32734;SDS011;19112;51.076;3.706;2022-12-29T02:01:50;9.38;;;1.70;;
32734;SDS011;19112;51.076;3.706;2022-12-29T02:04:16;8.65;;;1.73;;
32734;SDS011;19112;51.076;3.706;2022-12-29T02:06:53;7.30;;;1.80;;
32734;SDS011;19112;51.076;3.706;2022-12-29T02:09:32;9.13;;;1.38;;
32734;SDS011;19112;51.076;3.706;2022-12-29T02:11:58;6.95;;;1.75;;
32734;SDS011;19112;51.076;3.706;2022-12-29T02:14:25;11.93;;;1.90;;
32734;SDS011;19112;51.076;3.706;2022-12-29T02:17:07;7.22;;;1.70;;
32734;SDS011;19112;51.076;3.706;2022-12-29T02:34:54;6.32;;;1.67;;
32734;SDS011;19112;51.076;3.706;2022-12-29T02:37:31;14.30;;;1.95;;
32734;SDS011;19112;51.076;3.706;2022-12-29T02:42:47;5.72;;;1.40;;
32734;SDS011;19112;51.076;3.706;2022-12-29T02:47:59;12.35;;;1.80;;
32734;SDS011;19112;51.076;3.706;2022-12-29T02:51:02;12.98;;;1.90;;
32734;SDS011;19112;51.076;3.706;2022-12-29T02:53:34;8.38;;;1.50;;
32734;SDS011;19112;51.076;3.706;2022-12-29T02:56:20;9.25;;;1.50;;
32734;SDS011;19112;51.076;3.706;2022-12-29T02:58:46;10.23;;;1.73;;
32734;SDS011;19112;51.076;3.706;2022-12-29T03:14:27;14.05;;;1.88;;
32734;SDS011;19112;51.076;3.706;2022-12-29T03:18:06;11.98;;;1.63;;
32734;SDS011;19112;51.076;3.706;2022-12-29T03:20:38;12.43;;;2.28;;
32734;SDS011;19112;51.076;3.706;2022-12-29T03:23:17;15.10;;;2.08;;
32734;SDS011;19112;51.076;3.706;2022-12-29T03:25:49;14.20;;;1.80;;
32734;SDS011;19112;51.076;3.706;2022-12-29T03:28:21;15.60;;;3.05;;
32734;SDS011;19112;51.076;3.706;2022-12-29T03:31:01;9.05;;;1.88;;
32734;SDS011;19112;51.076;3.706;2022-12-29T03:33:29;10.18;;;2.10;;
32734;SDS011;19112;51.076;3.706;2022-12-29T03:35:58;15.45;;;1.98;;
32734;SDS011;19112;51.076;3.706;2022-12-29T03:38:39;16.08;;;2.10;;
32734;SDS011;19112;51.076;3.706;2022-12-29T03:41:23;13.25;;;1.90;;
32734;SDS011;19112;51.076;3.706;2022-12-29T03:43:53;9.77;;;1.90;;
32734;SDS011;19112;51.076;3.706;2022-12-29T03:46:19;10.98;;;1.80;;
32734;SDS011;19112;51.076;3.706;2022-12-29T03:48:45;11.15;;;2.72;;
32734;SDS011;19112;51.076;3.706;2022-12-29T03:51:11;9.65;;;1.45;;
32734;SDS011;19112;51.076;3.706;2022-12-29T03:53:36;11.55;;;2.10;;
32734;SDS011;19112;51.076;3.706;2022-12-29T03:56:02;17.45;;;3.92;;
32734;SDS011;19112;51.076;3.706;2022-12-29T03:58:29;15.07;;;2.05;;
32734;SDS011;19112;51.076;3.706;2022-12-29T04:00:55;12.32;;;2.30;;
32734;SDS011;19112;51.076;3.706;2022-12-29T04:03:21;10.32;;;1.75;;
32734;SDS011;19112;51.076;3.706;2022-12-29T04:05:47;14.63;;;2.33;;
32734;SDS011;19112;51.076;3.706;2022-12-29T04:08:13;10.75;;;1.98;;
32734;SDS011;19112;51.076;3.706;2022-12-29T04:10:38;15.82;;;2.40;;
32734;SDS011;19112;51.076;3.706;2022-12-29T04:13:04;11.82;;;2.28;;
32734;SDS011;19112;51.076;3.706;2022-12-29T04:15:30;10.35;;;2.10;;
32734;SDS011;19112;51.076;3.706;2022-12-29T04:17:56;11.50;;;2.45;;
32734;SDS011;19112;51.076;3.706;2022-12-29T04:20:22;14.02;;;2.30;;
32734;SDS011;19112;51.076;3.706;2022-12-29T04:23:06;17.67;;;2.45;;
32734;SDS011;19112;51.076;3.706;2022-12-29T04:25:32;17.73;;;2.40;;
32734;SDS011;19112;51.076;3.706;2022-12-29T04:27:59;16.83;;;2.13;;
32734;SDS011;19112;51.076;3.706;2022-12-29T04:30:24;19.30;;;3.85;;
32734;SDS011;19112;51.076;3.706;2022-12-29T04:32:50;7.43;;;1.63;;
32734;SDS011;19112;51.076;3.706;2022-12-29T04:35:16;9.05;;;1.98;;
32734;SDS011;19112;51.076;3.706;2022-12-29T04:37:42;11.75;;;1.95;;
32734;SDS011;19112;51.076;3.706;2022-12-29T04:40:08;12.95;;;2.08;;
32734;SDS011;19112;51.076;3.706;2022-12-29T04:42:34;10.77;;;1.75;;
32734;SDS011;19112;51.076;3.706;2022-12-29T04:45:00;13.00;;;1.63;;
32734;SDS011;19112;51.076;3.706;2022-12-29T04:47:26;18.70;;;2.17;;
32734;SDS011;19112;51.076;3.706;2022-12-29T04:49:52;11.10;;;2.05;;
32734;SDS011;19112;51.076;3.706;2022-12-29T04:52:18;15.20;;;2.60;;
32734;SDS011;19112;51.076;3.706;2022-12-29T04:54:43;13.60;;;2.05;;
32734;SDS011;19112;51.076;3.706;2022-12-29T04:57:09;13.15;;;1.85;;
32734;SDS011;19112;51.076;3.706;2022-12-29T04:59:35;16.35;;;2.53;;
32734;SDS011;19112;51.076;3.706;2022-12-29T05:02:01;9.55;;;2.13;;
32734;SDS011;19112;51.076;3.706;2022-12-29T05:04:26;16.27;;;2.05;;
32734;SDS011;19112;51.076;3.706;2022-12-29T05:06:52;9.48;;;2.35;;
32734;SDS011;19112;51.076;3.706;2022-12-29T05:09:18;11.05;;;2.08;;
32734;SDS011;19112;51.076;3.706;2022-12-29T05:11:43;9.15;;;1.80;;
32734;SDS011;19112;51.076;3.706;2022-12-29T05:14:09;11.13;;;1.73;;
32734;SDS011;19112;51.076;3.706;2022-12-29T05:16:35;13.00;;;1.92;;
32734;SDS011;19112;51.076;3.706;2022-12-29T05:19:01;16.20;;;2.00;;
32734;SDS011;19112;51.076;3.706;2022-12-29T05:21:26;10.07;;;1.80;;
32734;SDS011;19112;51.076;3.706;2022-12-29T05:23:52;11.90;;;2.15;;
32734;SDS011;19112;51.076;3.706;2022-12-29T05:26:18;12.05;;;2.10;;
32734;SDS011;19112;51.076;3.706;2022-12-29T05:28:44;12.95;;;2.13;;
32734;SDS011;19112;51.076;3.706;2022-12-29T05:31:09;12.23;;;2.10;;
32734;SDS011;19112;51.076;3.706;2022-12-29T05:33:35;12.65;;;1.80;;
32734;SDS011;19112;51.076;3.706;2022-12-29T05:36:07;11.30;;;1.90;;
32734;SDS011;19112;51.076;3.706;2022-12-29T05:38:34;11.25;;;1.60;;
32734;SDS011;19112;51.076;3.706;2022-12-29T05:41:00;8.55;;;1.67;;
32734;SDS011;19112;51.076;3.706;2022-12-29T05:43:26;12.73;;;1.90;;
32734;SDS011;19112;51.076;3.706;2022-12-29T05:45:52;11.75;;;1.80;;
32734;SDS011;19112;51.076;3.706;2022-12-29T05:48:19;17.48;;;2.30;;
32734;SDS011;19112;51.076;3.706;2022-12-29T05:50:49;14.77;;;2.33;;
32734;SDS011;19112;51.076;3.706;2022-12-29T05:53:16;17.02;;;2.05;;
32734;SDS011;19112;51.076;3.706;2022-12-29T05:55:42;10.35;;;1.98;;
32734;SDS011;19112;51.076;3.706;2022-12-29T05:58:11;10.27;;;1.98;;
32734;SDS011;19112;51.076;3.706;2022-12-29T06:00:37;13.30;;;2.08;;
32734;SDS011;19112;51.076;3.706;2022-12-29T06:03:03;10.35;;;2.45;;
32734;SDS011;19112;51.076;3.706;2022-12-29T06:05:29;14.77;;;3.38;;
32734;SDS011;19112;51.076;3.706;2022-12-29T06:07:54;16.02;;;2.45;;
32734;SDS011;19112;51.076;3.706;2022-12-29T06:10:20;22.15;;;2.70;;
32734;SDS011;19112;51.076;3.706;2022-12-29T06:12:46;15.68;;;3.38;;
32734;SDS011;19112;51.076;3.706;2022-12-29T06:15:12;16.15;;;2.60;;
32734;SDS011;19112;51.076;3.706;2022-12-29T06:17:38;17.00;;;3.35;;
32734;SDS011;19112;51.076;3.706;2022-12-29T06:20:04;24.45;;;3.80;;
32734;SDS011;19112;51.076;3.706;2022-12-29T06:22:30;13.82;;;2.33;;
32734;SDS011;19112;51.076;3.706;2022-12-29T06:24:56;14.82;;;2.30;;
32734;SDS011;19112;51.076;3.706;2022-12-29T06:27:22;16.70;;;2.10;;
32734;SDS011;19112;51.076;3.706;2022-12-29T06:29:48;21.65;;;3.65;;
32734;SDS011;19112;51.076;3.706;2022-12-29T06:32:14;19.70;;;2.75;;
32734;SDS011;19112;51.076;3.706;2022-12-29T06:34:40;20.38;;;3.53;;
32734;SDS011;19112;51.076;3.706;2022-12-29T06:37:06;16.52;;;2.58;;
32734;SDS011;19112;51.076;3.706;2022-12-29T06:39:33;23.38;;;3.97;;
32734;SDS011;19112;51.076;3.706;2022-12-29T06:41:58;21.33;;;3.03;;
32734;SDS011;19112;51.076;3.706;2022-12-29T06:44:24;16.67;;;2.80;;
32734;SDS011;19112;51.076;3.706;2022-12-29T06:46:50;18.58;;;3.20;;
32734;SDS011;19112;51.076;3.706;2022-12-29T06:49:16;16.05;;;2.47;;
32734;SDS011;19112;51.076;3.706;2022-12-29T06:51:42;16.50;;;2.88;;
32734;SDS011;19112;51.076;3.706;2022-12-29T06:54:08;22.33;;;3.35;;
32734;SDS011;19112;51.076;3.706;2022-12-29T06:56:33;16.55;;;3.45;;
32734;SDS011;19112;51.076;3.706;2022-12-29T06:58:59;21.42;;;2.67;;
32734;SDS011;19112;51.076;3.706;2022-12-29T07:01:26;18.88;;;2.97;;
32734;SDS011;19112;51.076;3.706;2022-12-29T07:03:52;17.90;;;3.00;;
32734;SDS011;19112;51.076;3.706;2022-12-29T07:06:18;19.45;;;3.92;;
32734;SDS011;19112;51.076;3.706;2022-12-29T07:08:43;22.13;;;3.53;;
32734;SDS011;19112;51.076;3.706;2022-12-29T07:11:09;18.08;;;3.45;;
32734;SDS011;19112;51.076;3.706;2022-12-29T07:13:35;18.00;;;2.78;;
32734;SDS011;19112;51.076;3.706;2022-12-29T07:16:08;22.38;;;3.13;;
32734;SDS011;19112;51.076;3.706;2022-12-29T07:18:35;21.00;;;2.70;;
32734;SDS011;19112;51.076;3.706;2022-12-29T07:21:01;18.30;;;2.75;;
32734;SDS011;19112;51.076;3.706;2022-12-29T07:23:27;15.80;;;2.55;;
32734;SDS011;19112;51.076;3.706;2022-12-29T07:26:00;21.17;;;3.28;;
32734;SDS011;19112;51.076;3.706;2022-12-29T07:28:27;19.92;;;2.88;;
32734;SDS011;19112;51.076;3.706;2022-12-29T07:30:53;40.55;;;4.63;;
32734;SDS011;19112;51.076;3.706;2022-12-29T07:33:19;25.08;;;3.40;;
32734;SDS011;19112;51.076;3.706;2022-12-29T07:35:44;23.70;;;3.97;;
32734;SDS011;19112;51.076;3.706;2022-12-29T07:38:10;21.48;;;3.90;;
32734;SDS011;19112;51.076;3.706;2022-12-29T07:40:36;23.17;;;3.55;;
32734;SDS011;19112;51.076;3.706;2022-12-29T07:43:02;17.90;;;2.70;;
32734;SDS011;19112;51.076;3.706;2022-12-29T07:45:29;20.65;;;2.90;;
32734;SDS011;19112;51.076;3.706;2022-12-29T07:47:55;24.80;;;4.25;;
32734;SDS011;19112;51.076;3.706;2022-12-29T07:50:20;29.83;;;4.55;;
32734;SDS011;19112;51.076;3.706;2022-12-29T07:52:46;19.30;;;2.50;;
32734;SDS011;19112;51.076;3.706;2022-12-29T07:55:13;19.70;;;3.47;;
32734;SDS011;19112;51.076;3.706;2022-12-29T07:57:39;20.65;;;3.42;;
32734;SDS011;19112;51.076;3.706;2022-12-29T08:00:05;18.20;;;3.50;;
32734;SDS011;19112;51.076;3.706;2022-12-29T08:02:32;22.23;;;3.30;;
32734;SDS011;19112;51.076;3.706;2022-12-29T08:04:58;20.83;;;3.58;;
32734;SDS011;19112;51.076;3.706;2022-12-29T08:07:23;19.67;;;3.25;;
32734;SDS011;19112;51.076;3.706;2022-12-29T08:09:49;18.73;;;3.38;;
32734;SDS011;19112;51.076;3.706;2022-12-29T08:12:15;23.65;;;3.60;;
32734;SDS011;19112;51.076;3.706;2022-12-29T08:14:40;21.40;;;3.88;;
32734;SDS011;19112;51.076;3.706;2022-12-29T08:17:07;19.52;;;4.00;;
32734;SDS011;19112;51.076;3.706;2022-12-29T08:19:32;19.63;;;3.15;;
32734;SDS011;19112;51.076;3.706;2022-12-29T08:21:58;24.88;;;4.35;;
32734;SDS011;19112;51.076;3.706;2022-12-29T08:24:24;18.40;;;3.53;;
32734;SDS011;19112;51.076;3.706;2022-12-29T08:26:50;22.60;;;3.33;;
32734;SDS011;19112;51.076;3.706;2022-12-29T08:29:15;18.52;;;2.70;;
32734;SDS011;19112;51.076;3.706;2022-12-29T08:31:41;21.58;;;2.90;;
32734;SDS011;19112;51.076;3.706;2022-12-29T08:34:07;19.90;;;2.70;;
32734;SDS011;19112;51.076;3.706;2022-12-29T08:36:33;17.95;;;3.65;;
32734;SDS011;19112;51.076;3.706;2022-12-29T08:38:59;17.70;;;2.80;;
32734;SDS011;19112;51.076;3.706;2022-12-29T08:41:25;20.75;;;3.10;;
32734;SDS011;19112;51.076;3.706;2022-12-29T08:43:51;27.80;;;3.08;;
32734;SDS011;19112;51.076;3.706;2022-12-29T08:46:17;14.68;;;2.50;;
32734;SDS011;19112;51.076;3.706;2022-12-29T08:48:42;23.58;;;2.90;;
32734;SDS011;19112;51.076;3.706;2022-12-29T08:51:08;16.92;;;3.22;;
32734;SDS011;19112;51.076;3.706;2022-12-29T08:53:34;18.65;;;2.83;;
32734;SDS011;19112;51.076;3.706;2022-12-29T08:56:01;25.88;;;4.00;;
32734;SDS011;19112;51.076;3.706;2022-12-29T08:58:27;19.48;;;3.13;;
32734;SDS011;19112;51.076;3.706;2022-12-29T09:00:53;17.63;;;2.88;;
32734;SDS011;19112;51.076;3.706;2022-12-29T09:03:21;24.80;;;3.05;;
32734;SDS011;19112;51.076;3.706;2022-12-29T09:05:48;21.13;;;3.22;;
32734;SDS011;19112;51.076;3.706;2022-12-29T09:08:16;28.27;;;3.33;;
32734;SDS011;19112;51.076;3.706;2022-12-29T09:10:43;18.45;;;2.92;;
32734;SDS011;19112;51.076;3.706;2022-12-29T09:13:10;24.83;;;3.13;;
32734;SDS011;19112;51.076;3.706;2022-12-29T09:15:38;22.67;;;3.75;;
32734;SDS011;19112;51.076;3.706;2022-12-29T09:18:05;24.02;;;3.45;;
32734;SDS011;19112;51.076;3.706;2022-12-29T09:20:32;24.52;;;4.05;;
32734;SDS011;19112;51.076;3.706;2022-12-29T09:22:58;23.13;;;4.03;;
32734;SDS011;19112;51.076;3.706;2022-12-29T09:25:24;21.23;;;3.10;;
32734;SDS011;19112;51.076;3.706;2022-12-29T09:27:51;19.05;;;3.33;;
32734;SDS011;19112;51.076;3.706;2022-12-29T09:30:18;22.13;;;3.40;;
32734;SDS011;19112;51.076;3.706;2022-12-29T09:32:46;25.85;;;3.83;;
32734;SDS011;19112;51.076;3.706;2022-12-29T09:35:13;19.70;;;3.17;;
32734;SDS011;19112;51.076;3.706;2022-12-29T09:37:40;25.10;;;4.82;;
32734;SDS011;19112;51.076;3.706;2022-12-29T09:40:06;21.35;;;3.72;;
32734;SDS011;19112;51.076;3.706;2022-12-29T09:42:58;19.88;;;3.65;;
32734;SDS011;19112;51.076;3.706;2022-12-29T09:45:48;25.88;;;3.70;;
32734;SDS011;19112;51.076;3.706;2022-12-29T09:48:53;26.75;;;4.07;;
32734;SDS011;19112;51.076;3.706;2022-12-29T09:51:47;21.63;;;3.50;;
32734;SDS011;19112;51.076;3.706;2022-12-29T09:57:32;25.02;;;4.30;;
32734;SDS011;19112;51.076;3.706;2022-12-29T10:00:13;28.08;;;4.10;;
32734;SDS011;19112;51.076;3.706;2022-12-29T10:08:42;23.42;;;4.38;;
32734;SDS011;19112;51.076;3.706;2022-12-29T10:26:12;27.02;;;3.97;;
32734;SDS011;19112;51.076;3.706;2022-12-29T10:31:50;32.17;;;3.88;;
32734;SDS011;19112;51.076;3.706;2022-12-29T10:34:28;27.65;;;4.25;;
32734;SDS011;19112;51.076;3.706;2022-12-29T10:37:34;24.55;;;3.58;;
32734;SDS011;19112;51.076;3.706;2022-12-29T10:42:57;22.90;;;3.30;;
32734;SDS011;19112;51.076;3.706;2022-12-29T10:45:28;24.85;;;4.00;;
32734;SDS011;19112;51.076;3.706;2022-12-29T10:48:03;24.77;;;4.28;;
32734;SDS011;19112;51.076;3.706;2022-12-29T10:50:37;21.88;;;3.95;;
32734;SDS011;19112;51.076;3.706;2022-12-29T10:53:07;20.65;;;2.88;;
32734;SDS011;19112;51.076;3.706;2022-12-29T10:55:46;19.02;;;3.25;;
32734;SDS011;19112;51.076;3.706;2022-12-29T10:58:12;17.70;;;2.30;;
32734;SDS011;19112;51.076;3.706;2022-12-29T11:00:39;20.25;;;2.35;;
32734;SDS011;19112;51.076;3.706;2022-12-29T11:06:25;16.98;;;3.90;;
32734;SDS011;19112;51.076;3.706;2022-12-29T11:08:58;17.67;;;3.30;;
32734;SDS011;19112;51.076;3.706;2022-12-29T11:11:39;24.60;;;2.85;;
32734;SDS011;19112;51.076;3.706;2022-12-29T11:14:12;18.17;;;3.08;;
32734;SDS011;19112;51.076;3.706;2022-12-29T11:17:00;20.88;;;2.88;;
32734;SDS011;19112;51.076;3.706;2022-12-29T11:19:30;19.52;;;4.35;;
32734;SDS011;19112;51.076;3.706;2022-12-29T11:25:06;24.27;;;3.90;;
32734;SDS011;19112;51.076;3.706;2022-12-29T11:27:37;20.73;;;3.38;;
32734;SDS011;19112;51.076;3.706;2022-12-29T11:30:11;18.88;;;2.53;;
32734;SDS011;19112;51.076;3.706;2022-12-29T11:32:53;18.17;;;3.53;;
32734;SDS011;19112;51.076;3.706;2022-12-29T11:35:34;12.63;;;2.92;;
32734;SDS011;19112;51.076;3.706;2022-12-29T11:38:05;15.65;;;3.15;;
32734;SDS011;19112;51.076;3.706;2022-12-29T11:40:44;24.67;;;3.40;;
32734;SDS011;19112;51.076;3.706;2022-12-29T11:43:21;16.77;;;3.03;;
32734;SDS011;19112;51.076;3.706;2022-12-29T11:45:58;24.83;;;3.80;;
32734;SDS011;19112;51.076;3.706;2022-12-29T11:48:25;16.75;;;4.53;;
32734;SDS011;19112;51.076;3.706;2022-12-29T11:50:57;26.20;;;3.80;;
32734;SDS011;19112;51.076;3.706;2022-12-29T11:53:28;22.90;;;5.13;;
32734;SDS011;19112;51.076;3.706;2022-12-29T11:56:20;18.52;;;3.20;;
32734;SDS011;19112;51.076;3.706;2022-12-29T11:58:58;21.77;;;3.75;;
32734;SDS011;19112;51.076;3.706;2022-12-29T12:01:59;29.08;;;3.53;;
32734;SDS011;19112;51.076;3.706;2022-12-29T12:04:45;19.90;;;4.03;;
32734;SDS011;19112;51.076;3.706;2022-12-29T12:07:37;23.05;;;3.80;;
32734;SDS011;19112;51.076;3.706;2022-12-29T12:10:11;23.20;;;3.85;;
32734;SDS011;19112;51.076;3.706;2022-12-29T12:16:06;18.17;;;3.67;;
32734;SDS011;19112;51.076;3.706;2022-12-29T12:21:23;19.27;;;3.50;;
32734;SDS011;19112;51.076;3.706;2022-12-29T12:24:15;21.15;;;4.10;;
32734;SDS011;19112;51.076;3.706;2022-12-29T12:29:49;19.05;;;3.13;;
32734;SDS011;19112;51.076;3.706;2022-12-29T12:41:23;14.82;;;2.40;;
32734;SDS011;19112;51.076;3.706;2022-12-29T13:10:44;12.23;;;2.38;;
32734;SDS011;19112;51.076;3.706;2022-12-29T13:13:31;15.73;;;2.20;;
32734;SDS011;19112;51.076;3.706;2022-12-29T13:17:25;15.43;;;2.40;;
32734;SDS011;19112;51.076;3.706;2022-12-29T13:19:34;17.98;;;2.80;;
32734;SDS011;19112;51.076;3.706;2022-12-29T13:22:29;18.98;;;2.60;;
32734;SDS011;19112;51.076;3.706;2022-12-29T13:28:02;10.38;;;2.10;;
32734;SDS011;19112;51.076;3.706;2022-12-29T13:31:14;13.70;;;2.10;;
32734;SDS011;19112;51.076;3.706;2022-12-29T13:34:03;8.82;;;2.00;;
32734;SDS011;19112;51.076;3.706;2022-12-29T13:36:47;12.00;;;2.33;;
32734;SDS011;19112;51.076;3.706;2022-12-29T13:39:34;12.82;;;2.15;;
32734;SDS011;19112;51.076;3.706;2022-12-29T13:42:05;8.18;;;1.60;;
32734;SDS011;19112;51.076;3.706;2022-12-29T13:44:32;10.07;;;2.00;;
32734;SDS011;19112;51.076;3.706;2022-12-29T13:50:01;10.98;;;2.47;;
32734;SDS011;19112;51.076;3.706;2022-12-29T13:58:20;8.73;;;2.05;;
32734;SDS011;19112;51.076;3.706;2022-12-29T14:04:28;10.38;;;1.92;;
32734;SDS011;19112;51.076;3.706;2022-12-29T14:07:05;12.48;;;2.15;;
32734;SDS011;19112;51.076;3.706;2022-12-29T14:09:49;9.05;;;1.63;;
32734;SDS011;19112;51.076;3.706;2022-12-29T14:17:34;11.23;;;1.90;;
32734;SDS011;19112;51.076;3.706;2022-12-29T14:20:00;10.98;;;1.70;;
32734;SDS011;19112;51.076;3.706;2022-12-29T14:22:27;14.48;;;2.28;;
32734;SDS011;19112;51.076;3.706;2022-12-29T14:24:53;10.82;;;2.00;;
32734;SDS011;19112;51.076;3.706;2022-12-29T14:29:45;8.27;;;1.95;;
32734;SDS011;19112;51.076;3.706;2022-12-29T14:35:00;8.20;;;1.60;;
32734;SDS011;19112;51.076;3.706;2022-12-29T14:38:22;10.70;;;1.63;;
32734;SDS011;19112;51.076;3.706;2022-12-29T14:41:15;11.32;;;1.92;;
32734;SDS011;19112;51.076;3.706;2022-12-29T14:49:22;9.82;;;2.47;;
32734;SDS011;19112;51.076;3.706;2022-12-29T14:51:53;9.15;;;1.88;;
32734;SDS011;19112;51.076;3.706;2022-12-29T14:58:04;14.15;;;2.10;;
32734;SDS011;19112;51.076;3.706;2022-12-29T15:00:50;12.63;;;2.20;;
32734;SDS011;19112;51.076;3.706;2022-12-29T15:05:57;19.25;;;2.75;;
32734;SDS011;19112;51.076;3.706;2022-12-29T15:08:32;19.05;;;3.72;;
32734;SDS011;19112;51.076;3.706;2022-12-29T15:11:22;22.60;;;5.22;;
32734;SDS011;19112;51.076;3.706;2022-12-29T15:13:57;20.17;;;3.50;;
32734;SDS011;19112;51.076;3.706;2022-12-29T15:16:32;19.85;;;3.08;;
32734;SDS011;19112;51.076;3.706;2022-12-29T15:19:01;17.73;;;2.65;;
32734;SDS011;19112;51.076;3.706;2022-12-29T15:21:31;16.30;;;2.60;;
32734;SDS011;19112;51.076;3.706;2022-12-29T15:24:00;19.55;;;2.80;;
32734;SDS011;19112;51.076;3.706;2022-12-29T15:26:39;16.92;;;3.30;;
32734;SDS011;19112;51.076;3.706;2022-12-29T15:32:39;14.50;;;2.60;;
32734;SDS011;19112;51.076;3.706;2022-12-29T15:37:58;16.92;;;3.53;;
32734;SDS011;19112;51.076;3.706;2022-12-29T15:40:28;13.25;;;3.10;;
32734;SDS011;19112;51.076;3.706;2022-12-29T15:45:40;16.38;;;2.72;;
32734;SDS011;19112;51.076;3.706;2022-12-29T15:48:07;15.75;;;3.08;;
32734;SDS011;19112;51.076;3.706;2022-12-29T15:50:44;8.70;;;2.45;;
32734;SDS011;19112;51.076;3.706;2022-12-29T15:53:11;15.50;;;2.83;;
32734;SDS011;19112;51.076;3.706;2022-12-29T15:55:53;20.53;;;3.03;;
32734;SDS011;19112;51.076;3.706;2022-12-29T15:58:24;16.13;;;3.05;;
32734;SDS011;19112;51.076;3.706;2022-12-29T16:00:55;16.70;;;3.03;;
32734;SDS011;19112;51.076;3.706;2022-12-29T16:03:27;16.45;;;3.53;;
32734;SDS011;19112;51.076;3.706;2022-12-29T16:06:06;22.95;;;3.42;;
32734;SDS011;19112;51.076;3.706;2022-12-29T16:08:56;17.67;;;3.08;;
32734;SDS011;19112;51.076;3.706;2022-12-29T16:11:40;19.15;;;3.30;;
32734;SDS011;19112;51.076;3.706;2022-12-29T16:14:16;20.13;;;3.25;;
32734;SDS011;19112;51.076;3.706;2022-12-29T16:16:46;20.13;;;3.63;;
32734;SDS011;19112;51.076;3.706;2022-12-29T16:22:02;23.65;;;3.42;;
32734;SDS011;19112;51.076;3.706;2022-12-29T16:24:36;17.20;;;2.72;;
32734;SDS011;19112;51.076;3.706;2022-12-29T16:29:36;24.70;;;3.35;;
32734;SDS011;19112;51.076;3.706;2022-12-29T16:32:02;24.13;;;4.55;;
32734;SDS011;19112;51.076;3.706;2022-12-29T16:34:47;24.40;;;4.13;;
32734;SDS011;19112;51.076;3.706;2022-12-29T16:37:34;21.20;;;4.40;;
32734;SDS011;19112;51.076;3.706;2022-12-29T16:42:56;18.55;;;3.78;;
32734;SDS011;19112;51.076;3.706;2022-12-29T16:50:39;24.42;;;3.90;;
32734;SDS011;19112;51.076;3.706;2022-12-29T16:53:29;31.33;;;7.13;;
32734;SDS011;19112;51.076;3.706;2022-12-29T16:56:07;23.10;;;3.88;;
32734;SDS011;19112;51.076;3.706;2022-12-29T16:58:45;25.63;;;4.53;;
32734;SDS011;19112;51.076;3.706;2022-12-29T17:01:14;26.52;;;3.47;;
32734;SDS011;19112;51.076;3.706;2022-12-29T17:03:45;26.40;;;4.80;;
32734;SDS011;19112;51.076;3.706;2022-12-29T17:06:38;23.48;;;3.60;;
32734;SDS011;19112;51.076;3.706;2022-12-29T17:09:19;22.30;;;3.67;;
32734;SDS011;19112;51.076;3.706;2022-12-29T17:11:48;26.52;;;3.88;;
32734;SDS011;19112;51.076;3.706;2022-12-29T17:16:55;23.98;;;3.50;;
32734;SDS011;19112;51.076;3.706;2022-12-29T17:19:24;25.40;;;3.97;;
32734;SDS011;19112;51.076;3.706;2022-12-29T17:21:57;27.33;;;5.32;;
32734;SDS011;19112;51.076;3.706;2022-12-29T17:24:24;35.15;;;12.60;;
32734;SDS011;19112;51.076;3.706;2022-12-29T17:26:54;31.70;;;12.32;;
32734;SDS011;19112;51.076;3.706;2022-12-29T17:29:37;31.60;;;6.85;;
32734;SDS011;19112;51.076;3.706;2022-12-29T17:32:05;45.28;;;21.67;;
32734;SDS011;19112;51.076;3.706;2022-12-29T17:34:37;90.43;;;69.47;;
32734;SDS011;19112;51.076;3.706;2022-12-29T17:37:11;36.22;;;11.80;;
32734;SDS011;19112;51.076;3.706;2022-12-29T17:39:57;23.97;;;6.23;;
32734;SDS011;19112;51.076;3.706;2022-12-29T17:42:23;35.75;;;10.93;;
32734;SDS011;19112;51.076;3.706;2022-12-29T17:44:49;39.38;;;17.98;;
32734;SDS011;19112;51.076;3.706;2022-12-29T17:47:14;32.10;;;8.25;;
32734;SDS011;19112;51.076;3.706;2022-12-29T17:49:40;29.17;;;7.50;;
32734;SDS011;19112;51.076;3.706;2022-12-29T17:52:10;29.52;;;6.55;;
32734;SDS011;19112;51.076;3.706;2022-12-29T17:54:40;24.67;;;4.05;;
32734;SDS011;19112;51.076;3.706;2022-12-29T17:57:12;31.55;;;7.43;;
32734;SDS011;19112;51.076;3.706;2022-12-29T17:59:39;30.17;;;6.75;;
32734;SDS011;19112;51.076;3.706;2022-12-29T18:02:26;28.08;;;5.38;;
32734;SDS011;19112;51.076;3.706;2022-12-29T18:04:55;29.98;;;5.38;;
32734;SDS011;19112;51.076;3.706;2022-12-29T18:07:25;24.65;;;4.93;;
32734;SDS011;19112;51.076;3.706;2022-12-29T18:09:53;21.92;;;4.50;;